sensor_id;sensor_type;location;lat;lon;timestamp;P1;durP1;ratioP1;P2;durP2;ratioP2
75071;SDS011;63651;55.728;38.022;2022-10-16T00:03:15;17.92;;;11.73;;
75071;SDS011;63651;55.728;38.022;2022-10-16T00:08:16;21.95;;;12.15;;
75071;SDS011;63651;55.728;38.022;2022-10-16T00:13:17;21.55;;;15.52;;
75071;SDS011;63651;55.728;38.022;2022-10-16T00:18:20;21.58;;;16.08;;
75071;SDS011;63651;55.728;38.022;2022-10-16T00:23:21;19.42;;;15.43;;
75071;SDS011;63651;55.728;38.022;2022-10-16T00:28:22;18.90;;;12.90;;
75071;SDS011;63651;55.728;38.022;2022-10-16T00:33:23;12.63;;;8.45;;
75071;SDS011;63651;55.728;38.022;2022-10-16T00:38:24;11.02;;;8.23;;
75071;SDS011;63651;55.728;38.022;2022-10-16T00:43:44;9.55;;;6.72;;
75071;SDS011;63651;55.728;38.022;2022-10-16T00:48:46;10.82;;;7.72;;
75071;SDS011;63651;55.728;38.022;2022-10-16T00:53:49;10.35;;;7.47;;
75071;SDS011;63651;55.728;38.022;2022-10-16T00:58:50;13.20;;;7.57;;
75071;SDS011;63651;55.728;38.022;2022-10-16T01:03:51;9.82;;;6.97;;
75071;SDS011;63651;55.728;38.022;2022-10-16T01:13:53;10.98;;;8.50;;
75071;SDS011;63651;55.728;38.022;2022-10-16T01:18:57;10.23;;;7.78;;
75071;SDS011;63651;55.728;38.022;2022-10-16T01:24:11;11.02;;;7.93;;
75071;SDS011;63651;55.728;38.022;2022-10-16T01:29:16;9.20;;;6.90;;
75071;SDS011;63651;55.728;38.022;2022-10-16T01:34:21;9.35;;;7.25;;
75071;SDS011;63651;55.728;38.022;2022-10-16T01:39:24;11.77;;;8.75;;
75071;SDS011;63651;55.728;38.022;2022-10-16T01:44:26;13.60;;;10.23;;
75071;SDS011;63651;55.728;38.022;2022-10-16T01:49:33;16.33;;;10.50;;
75071;SDS011;63651;55.728;38.022;2022-10-16T01:54:35;13.80;;;9.60;;
75071;SDS011;63651;55.728;38.022;2022-10-16T01:59:38;14.77;;;9.40;;
75071;SDS011;63651;55.728;38.022;2022-10-16T02:04:45;17.95;;;11.73;;
75071;SDS011;63651;55.728;38.022;2022-10-16T02:09:46;18.73;;;13.00;;
75071;SDS011;63651;55.728;38.022;2022-10-16T02:14:47;16.40;;;10.52;;
75071;SDS011;63651;55.728;38.022;2022-10-16T02:19:48;14.32;;;9.80;;
75071;SDS011;63651;55.728;38.022;2022-10-16T02:29:55;13.80;;;9.05;;
75071;SDS011;63651;55.728;38.022;2022-10-16T02:34:59;13.27;;;8.20;;
75071;SDS011;63651;55.728;38.022;2022-10-16T02:40:00;13.30;;;9.20;;
75071;SDS011;63651;55.728;38.022;2022-10-16T02:45:02;14.85;;;9.85;;
75071;SDS011;63651;55.728;38.022;2022-10-16T02:50:04;17.83;;;11.27;;
75071;SDS011;63651;55.728;38.022;2022-10-16T02:55:05;15.23;;;11.38;;
75071;SDS011;63651;55.728;38.022;2022-10-16T03:00:06;15.48;;;11.23;;
75071;SDS011;63651;55.728;38.022;2022-10-16T03:05:08;13.60;;;11.30;;
75071;SDS011;63651;55.728;38.022;2022-10-16T03:10:09;15.82;;;10.52;;
75071;SDS011;63651;55.728;38.022;2022-10-16T03:15:10;15.40;;;9.85;;
75071;SDS011;63651;55.728;38.022;2022-10-16T03:20:11;15.45;;;11.35;;
75071;SDS011;63651;55.728;38.022;2022-10-16T03:25:11;13.85;;;9.57;;
75071;SDS011;63651;55.728;38.022;2022-10-16T03:30:12;12.85;;;9.27;;
75071;SDS011;63651;55.728;38.022;2022-10-16T03:35:13;9.85;;;7.15;;
75071;SDS011;63651;55.728;38.022;2022-10-16T03:40:14;8.80;;;6.15;;
75071;SDS011;63651;55.728;38.022;2022-10-16T03:45:15;9.60;;;6.57;;
75071;SDS011;63651;55.728;38.022;2022-10-16T03:50:16;9.63;;;6.95;;
75071;SDS011;63651;55.728;38.022;2022-10-16T03:55:16;16.23;;;10.32;;
75071;SDS011;63651;55.728;38.022;2022-10-16T04:00:17;18.10;;;12.75;;
75071;SDS011;63651;55.728;38.022;2022-10-16T04:05:18;21.40;;;12.38;;
75071;SDS011;63651;55.728;38.022;2022-10-16T04:10:18;21.45;;;14.45;;
75071;SDS011;63651;55.728;38.022;2022-10-16T04:15:19;19.55;;;13.00;;
75071;SDS011;63651;55.728;38.022;2022-10-16T04:20:20;15.40;;;11.00;;
75071;SDS011;63651;55.728;38.022;2022-10-16T04:25:21;14.25;;;10.25;;
75071;SDS011;63651;55.728;38.022;2022-10-16T04:30:22;21.38;;;13.00;;
75071;SDS011;63651;55.728;38.022;2022-10-16T04:35:23;21.70;;;14.52;;
75071;SDS011;63651;55.728;38.022;2022-10-16T04:40:23;17.02;;;12.45;;
75071;SDS011;63651;55.728;38.022;2022-10-16T04:45:24;16.65;;;12.10;;
75071;SDS011;63651;55.728;38.022;2022-10-16T04:50:25;19.95;;;13.57;;
75071;SDS011;63651;55.728;38.022;2022-10-16T04:55:26;17.10;;;12.75;;
75071;SDS011;63651;55.728;38.022;2022-10-16T05:00:27;16.65;;;11.50;;
75071;SDS011;63651;55.728;38.022;2022-10-16T05:05:27;20.58;;;13.25;;
75071;SDS011;63651;55.728;38.022;2022-10-16T05:10:28;20.10;;;12.40;;
75071;SDS011;63651;55.728;38.022;2022-10-16T05:15:29;18.33;;;11.63;;
75071;SDS011;63651;55.728;38.022;2022-10-16T05:20:30;19.85;;;12.15;;
75071;SDS011;63651;55.728;38.022;2022-10-16T05:25:30;18.98;;;11.90;;
75071;SDS011;63651;55.728;38.022;2022-10-16T05:30:31;17.50;;;11.52;;
75071;SDS011;63651;55.728;38.022;2022-10-16T05:35:32;13.50;;;7.72;;
75071;SDS011;63651;55.728;38.022;2022-10-16T05:40:34;13.65;;;9.40;;
75071;SDS011;63651;55.728;38.022;2022-10-16T05:45:35;13.32;;;9.30;;
75071;SDS011;63651;55.728;38.022;2022-10-16T05:50:36;14.68;;;8.65;;
75071;SDS011;63651;55.728;38.022;2022-10-16T05:55:36;12.45;;;8.88;;
75071;SDS011;63651;55.728;38.022;2022-10-16T06:00:37;13.50;;;11.02;;
75071;SDS011;63651;55.728;38.022;2022-10-16T06:05:38;14.50;;;11.27;;
75071;SDS011;63651;55.728;38.022;2022-10-16T06:10:39;14.77;;;10.70;;
75071;SDS011;63651;55.728;38.022;2022-10-16T06:15:42;14.98;;;11.07;;
75071;SDS011;63651;55.728;38.022;2022-10-16T06:20:43;16.95;;;11.50;;
75071;SDS011;63651;55.728;38.022;2022-10-16T06:25:44;16.45;;;12.02;;
75071;SDS011;63651;55.728;38.022;2022-10-16T06:30:44;13.00;;;9.60;;
75071;SDS011;63651;55.728;38.022;2022-10-16T06:35:46;10.43;;;7.82;;
75071;SDS011;63651;55.728;38.022;2022-10-16T06:40:46;13.05;;;8.25;;
75071;SDS011;63651;55.728;38.022;2022-10-16T06:45:55;13.25;;;8.65;;
75071;SDS011;63651;55.728;38.022;2022-10-16T06:51:00;15.43;;;9.73;;
75071;SDS011;63651;55.728;38.022;2022-10-16T06:56:07;10.98;;;8.60;;
75071;SDS011;63651;55.728;38.022;2022-10-16T07:01:09;15.95;;;9.70;;
75071;SDS011;63651;55.728;38.022;2022-10-16T07:06:11;14.55;;;9.75;;
75071;SDS011;63651;55.728;38.022;2022-10-16T07:11:13;12.40;;;7.90;;
75071;SDS011;63651;55.728;38.022;2022-10-16T07:16:15;11.38;;;6.53;;
75071;SDS011;63651;55.728;38.022;2022-10-16T07:21:17;11.35;;;7.97;;
75071;SDS011;63651;55.728;38.022;2022-10-16T07:26:19;17.98;;;8.75;;
75071;SDS011;63651;55.728;38.022;2022-10-16T07:31:20;12.18;;;7.80;;
75071;SDS011;63651;55.728;38.022;2022-10-16T07:36:21;13.65;;;8.98;;
75071;SDS011;63651;55.728;38.022;2022-10-16T07:41:22;14.98;;;7.90;;
75071;SDS011;63651;55.728;38.022;2022-10-16T07:46:22;11.35;;;6.82;;
75071;SDS011;63651;55.728;38.022;2022-10-16T07:51:24;11.25;;;6.82;;
75071;SDS011;63651;55.728;38.022;2022-10-16T07:56:25;7.95;;;5.35;;
75071;SDS011;63651;55.728;38.022;2022-10-16T08:01:25;16.55;;;8.02;;
75071;SDS011;63651;55.728;38.022;2022-10-16T08:06:26;10.63;;;7.07;;
75071;SDS011;63651;55.728;38.022;2022-10-16T08:11:27;12.73;;;8.32;;
75071;SDS011;63651;55.728;38.022;2022-10-16T08:16:28;11.30;;;6.78;;
75071;SDS011;63651;55.728;38.022;2022-10-16T08:21:29;9.07;;;5.63;;
75071;SDS011;63651;55.728;38.022;2022-10-16T08:26:29;9.65;;;5.05;;
75071;SDS011;63651;55.728;38.022;2022-10-16T08:31:30;11.90;;;6.70;;
75071;SDS011;63651;55.728;38.022;2022-10-16T08:36:31;10.65;;;7.30;;
75071;SDS011;63651;55.728;38.022;2022-10-16T08:52:10;11.05;;;7.28;;
75071;SDS011;63651;55.728;38.022;2022-10-16T08:57:22;8.30;;;5.82;;
75071;SDS011;63651;55.728;38.022;2022-10-16T09:02:26;8.48;;;6.28;;
75071;SDS011;63651;55.728;38.022;2022-10-16T09:12:40;10.10;;;5.43;;
75071;SDS011;63651;55.728;38.022;2022-10-16T09:22:55;13.63;;;6.45;;
75071;SDS011;63651;55.728;38.022;2022-10-16T09:28:00;8.20;;;5.30;;
75071;SDS011;63651;55.728;38.022;2022-10-16T09:33:01;9.13;;;5.82;;
75071;SDS011;63651;55.728;38.022;2022-10-16T09:38:02;8.80;;;5.07;;
75071;SDS011;63651;55.728;38.022;2022-10-16T09:48:18;10.27;;;5.15;;
75071;SDS011;63651;55.728;38.022;2022-10-16T09:53:20;7.13;;;4.82;;
75071;SDS011;63651;55.728;38.022;2022-10-16T09:58:23;8.95;;;4.25;;
75071;SDS011;63651;55.728;38.022;2022-10-16T10:03:37;7.20;;;3.78;;
75071;SDS011;63651;55.728;38.022;2022-10-16T10:08:38;8.05;;;4.40;;
75071;SDS011;63651;55.728;38.022;2022-10-16T10:13:39;6.45;;;4.40;;
75071;SDS011;63651;55.728;38.022;2022-10-16T10:18:40;6.68;;;5.20;;
75071;SDS011;63651;55.728;38.022;2022-10-16T10:23:40;5.50;;;4.20;;
75071;SDS011;63651;55.728;38.022;2022-10-16T10:28:47;6.35;;;4.22;;
75071;SDS011;63651;55.728;38.022;2022-10-16T10:39:23;8.75;;;5.47;;
75071;SDS011;63651;55.728;38.022;2022-10-16T11:05:31;7.32;;;4.85;;
75071;SDS011;63651;55.728;38.022;2022-10-16T11:10:45;9.55;;;5.00;;
75071;SDS011;63651;55.728;38.022;2022-10-16T11:15:48;5.80;;;3.42;;
75071;SDS011;63651;55.728;38.022;2022-10-16T11:20:54;5.78;;;3.85;;
75071;SDS011;63651;55.728;38.022;2022-10-16T11:25:57;8.38;;;5.30;;
75071;SDS011;63651;55.728;38.022;2022-10-16T11:31:02;7.38;;;3.88;;
75071;SDS011;63651;55.728;38.022;2022-10-16T11:46:19;5.50;;;3.70;;
75071;SDS011;63651;55.728;38.022;2022-10-16T11:51:36;5.75;;;3.70;;
75071;SDS011;63651;55.728;38.022;2022-10-16T11:56:38;7.00;;;3.80;;
75071;SDS011;63651;55.728;38.022;2022-10-16T12:01:42;5.07;;;3.58;;
75071;SDS011;63651;55.728;38.022;2022-10-16T12:11:45;4.70;;;3.38;;
75071;SDS011;63651;55.728;38.022;2022-10-16T12:16:53;7.28;;;4.63;;
75071;SDS011;63651;55.728;38.022;2022-10-16T12:21:58;6.32;;;3.63;;
75071;SDS011;63651;55.728;38.022;2022-10-16T12:27:00;5.80;;;3.08;;
75071;SDS011;63651;55.728;38.022;2022-10-16T12:32:02;5.65;;;3.20;;
75071;SDS011;63651;55.728;38.022;2022-10-16T12:52:39;6.13;;;4.22;;
75071;SDS011;63651;55.728;38.022;2022-10-16T12:57:43;8.68;;;4.65;;
75071;SDS011;63651;55.728;38.022;2022-10-16T13:07:59;12.10;;;5.70;;
75071;SDS011;63651;55.728;38.022;2022-10-16T13:13:06;9.77;;;5.72;;
75071;SDS011;63651;55.728;38.022;2022-10-16T13:18:26;8.43;;;5.43;;
75071;SDS011;63651;55.728;38.022;2022-10-16T13:29:04;8.52;;;4.82;;
75071;SDS011;63651;55.728;38.022;2022-10-16T13:34:05;9.85;;;5.20;;
75071;SDS011;63651;55.728;38.022;2022-10-16T13:44:18;9.82;;;5.57;;
75071;SDS011;63651;55.728;38.022;2022-10-16T13:49:20;9.88;;;6.25;;
75071;SDS011;63651;55.728;38.022;2022-10-16T13:54:20;13.07;;;7.55;;
75071;SDS011;63651;55.728;38.022;2022-10-16T13:59:25;12.65;;;6.60;;
75071;SDS011;63651;55.728;38.022;2022-10-16T14:04:27;13.07;;;6.85;;
75071;SDS011;63651;55.728;38.022;2022-10-16T14:09:30;12.15;;;6.13;;
75071;SDS011;63651;55.728;38.022;2022-10-16T14:14:34;12.02;;;7.03;;
75071;SDS011;63651;55.728;38.022;2022-10-16T14:19:35;14.77;;;7.93;;
75071;SDS011;63651;55.728;38.022;2022-10-16T14:24:36;16.48;;;9.35;;
75071;SDS011;63651;55.728;38.022;2022-10-16T14:29:37;18.92;;;9.98;;
75071;SDS011;63651;55.728;38.022;2022-10-16T14:34:38;17.73;;;10.20;;
75071;SDS011;63651;55.728;38.022;2022-10-16T14:39:40;16.48;;;9.57;;
75071;SDS011;63651;55.728;38.022;2022-10-16T14:44:41;14.63;;;8.40;;
75071;SDS011;63651;55.728;38.022;2022-10-16T14:49:42;17.98;;;9.85;;
75071;SDS011;63651;55.728;38.022;2022-10-16T14:54:43;21.02;;;13.30;;
75071;SDS011;63651;55.728;38.022;2022-10-16T14:59:43;14.77;;;9.60;;
75071;SDS011;63651;55.728;38.022;2022-10-16T15:04:45;12.35;;;7.15;;
75071;SDS011;63651;55.728;38.022;2022-10-16T15:09:46;12.38;;;7.32;;
75071;SDS011;63651;55.728;38.022;2022-10-16T15:14:47;10.98;;;6.70;;
75071;SDS011;63651;55.728;38.022;2022-10-16T15:19:47;10.18;;;7.22;;
75071;SDS011;63651;55.728;38.022;2022-10-16T15:24:48;11.48;;;7.70;;
75071;SDS011;63651;55.728;38.022;2022-10-16T15:29:49;13.80;;;7.78;;
75071;SDS011;63651;55.728;38.022;2022-10-16T15:34:49;11.88;;;7.10;;
75071;SDS011;63651;55.728;38.022;2022-10-16T15:39:50;12.43;;;7.53;;
75071;SDS011;63651;55.728;38.022;2022-10-16T15:44:51;13.93;;;8.63;;
75071;SDS011;63651;55.728;38.022;2022-10-16T15:49:52;14.82;;;8.55;;
75071;SDS011;63651;55.728;38.022;2022-10-16T15:54:52;14.38;;;8.55;;
75071;SDS011;63651;55.728;38.022;2022-10-16T15:59:53;17.63;;;9.85;;
75071;SDS011;63651;55.728;38.022;2022-10-16T16:04:54;14.88;;;9.55;;
75071;SDS011;63651;55.728;38.022;2022-10-16T16:09:54;17.17;;;9.90;;
75071;SDS011;63651;55.728;38.022;2022-10-16T16:14:55;15.02;;;9.48;;
75071;SDS011;63651;55.728;38.022;2022-10-16T16:19:56;13.77;;;10.10;;
75071;SDS011;63651;55.728;38.022;2022-10-16T16:24:56;17.15;;;9.65;;
75071;SDS011;63651;55.728;38.022;2022-10-16T16:29:57;12.75;;;9.52;;
75071;SDS011;63651;55.728;38.022;2022-10-16T16:34:58;16.77;;;9.98;;
75071;SDS011;63651;55.728;38.022;2022-10-16T16:39:58;15.27;;;10.80;;
75071;SDS011;63651;55.728;38.022;2022-10-16T16:44:59;18.02;;;9.85;;
75071;SDS011;63651;55.728;38.022;2022-10-16T16:50:00;17.55;;;9.93;;
75071;SDS011;63651;55.728;38.022;2022-10-16T16:55:05;14.32;;;9.70;;
75071;SDS011;63651;55.728;38.022;2022-10-16T17:00:06;13.85;;;7.95;;
75071;SDS011;63651;55.728;38.022;2022-10-16T17:05:07;12.95;;;8.30;;
75071;SDS011;63651;55.728;38.022;2022-10-16T17:10:08;13.52;;;8.43;;
75071;SDS011;63651;55.728;38.022;2022-10-16T17:15:09;12.07;;;8.00;;
75071;SDS011;63651;55.728;38.022;2022-10-16T17:20:09;13.60;;;8.40;;
75071;SDS011;63651;55.728;38.022;2022-10-16T17:25:10;11.35;;;8.10;;
75071;SDS011;63651;55.728;38.022;2022-10-16T17:30:11;15.13;;;7.80;;
75071;SDS011;63651;55.728;38.022;2022-10-16T17:35:12;10.82;;;7.80;;
75071;SDS011;63651;55.728;38.022;2022-10-16T17:40:12;10.60;;;7.10;;
75071;SDS011;63651;55.728;38.022;2022-10-16T17:45:13;12.65;;;7.30;;
75071;SDS011;63651;55.728;38.022;2022-10-16T17:50:14;8.85;;;6.60;;
75071;SDS011;63651;55.728;38.022;2022-10-16T17:55:14;13.30;;;7.90;;
75071;SDS011;63651;55.728;38.022;2022-10-16T18:00:15;9.13;;;6.63;;
75071;SDS011;63651;55.728;38.022;2022-10-16T18:05:16;9.35;;;6.72;;
75071;SDS011;63651;55.728;38.022;2022-10-16T18:10:17;11.88;;;6.75;;
75071;SDS011;63651;55.728;38.022;2022-10-16T18:15:18;9.90;;;6.72;;
75071;SDS011;63651;55.728;38.022;2022-10-16T18:20:18;9.77;;;6.68;;
75071;SDS011;63651;55.728;38.022;2022-10-16T18:25:20;9.25;;;6.40;;
75071;SDS011;63651;55.728;38.022;2022-10-16T18:30:20;9.02;;;5.85;;
75071;SDS011;63651;55.728;38.022;2022-10-16T18:35:22;9.13;;;5.85;;
75071;SDS011;63651;55.728;38.022;2022-10-16T18:40:22;9.98;;;6.63;;
75071;SDS011;63651;55.728;38.022;2022-10-16T18:45:23;8.77;;;6.00;;
75071;SDS011;63651;55.728;38.022;2022-10-16T18:50:24;8.88;;;5.47;;
75071;SDS011;63651;55.728;38.022;2022-10-16T18:55:24;8.00;;;5.25;;
75071;SDS011;63651;55.728;38.022;2022-10-16T19:00:25;9.00;;;5.75;;
75071;SDS011;63651;55.728;38.022;2022-10-16T19:05:26;8.45;;;6.57;;
75071;SDS011;63651;55.728;38.022;2022-10-16T19:10:27;9.70;;;6.50;;
75071;SDS011;63651;55.728;38.022;2022-10-16T19:15:27;11.43;;;7.03;;
75071;SDS011;63651;55.728;38.022;2022-10-16T19:20:28;8.75;;;5.97;;
75071;SDS011;63651;55.728;38.022;2022-10-16T19:25:29;10.20;;;6.65;;
75071;SDS011;63651;55.728;38.022;2022-10-16T19:30:29;9.82;;;6.47;;
75071;SDS011;63651;55.728;38.022;2022-10-16T19:35:31;9.80;;;6.78;;
75071;SDS011;63651;55.728;38.022;2022-10-16T19:40:32;10.10;;;6.85;;
75071;SDS011;63651;55.728;38.022;2022-10-16T19:45:32;9.27;;;6.93;;
75071;SDS011;63651;55.728;38.022;2022-10-16T19:50:33;9.20;;;5.82;;
75071;SDS011;63651;55.728;38.022;2022-10-16T19:55:34;8.18;;;5.85;;
75071;SDS011;63651;55.728;38.022;2022-10-16T20:00:35;7.47;;;5.50;;
75071;SDS011;63651;55.728;38.022;2022-10-16T20:05:35;6.60;;;4.25;;
75071;SDS011;63651;55.728;38.022;2022-10-16T20:10:36;6.90;;;4.50;;
75071;SDS011;63651;55.728;38.022;2022-10-16T20:15:37;7.60;;;4.78;;
75071;SDS011;63651;55.728;38.022;2022-10-16T20:20:38;6.07;;;4.55;;
75071;SDS011;63651;55.728;38.022;2022-10-16T20:25:39;8.38;;;5.00;;
75071;SDS011;63651;55.728;38.022;2022-10-16T20:30:41;6.65;;;5.03;;
75071;SDS011;63651;55.728;38.022;2022-10-16T20:35:43;9.25;;;4.68;;
75071;SDS011;63651;55.728;38.022;2022-10-16T20:40:45;5.95;;;4.30;;
75071;SDS011;63651;55.728;38.022;2022-10-16T20:45:46;7.68;;;4.60;;
75071;SDS011;63651;55.728;38.022;2022-10-16T20:50:47;6.78;;;4.72;;
75071;SDS011;63651;55.728;38.022;2022-10-16T20:55:47;6.47;;;4.15;;
75071;SDS011;63651;55.728;38.022;2022-10-16T21:00:48;4.90;;;3.97;;
75071;SDS011;63651;55.728;38.022;2022-10-16T21:05:49;5.00;;;3.90;;
75071;SDS011;63651;55.728;38.022;2022-10-16T21:10:49;6.70;;;4.10;;
75071;SDS011;63651;55.728;38.022;2022-10-16T21:15:50;5.28;;;3.60;;
75071;SDS011;63651;55.728;38.022;2022-10-16T21:20:51;6.82;;;3.70;;
75071;SDS011;63651;55.728;38.022;2022-10-16T21:25:52;5.72;;;3.47;;
75071;SDS011;63651;55.728;38.022;2022-10-16T21:30:52;4.82;;;3.85;;
75071;SDS011;63651;55.728;38.022;2022-10-16T21:35:53;4.72;;;3.47;;
75071;SDS011;63651;55.728;38.022;2022-10-16T21:40:54;4.95;;;3.88;;
75071;SDS011;63651;55.728;38.022;2022-10-16T21:45:55;4.80;;;3.47;;
75071;SDS011;63651;55.728;38.022;2022-10-16T21:50:56;3.78;;;2.75;;
75071;SDS011;63651;55.728;38.022;2022-10-16T21:55:56;7.25;;;3.70;;
75071;SDS011;63651;55.728;38.022;2022-10-16T22:00:57;7.28;;;3.00;;
75071;SDS011;63651;55.728;38.022;2022-10-16T22:06:02;4.63;;;2.97;;
75071;SDS011;63651;55.728;38.022;2022-10-16T22:11:09;4.50;;;3.22;;
75071;SDS011;63651;55.728;38.022;2022-10-16T22:16:10;5.05;;;2.97;;
75071;SDS011;63651;55.728;38.022;2022-10-16T22:21:11;4.40;;;3.10;;
75071;SDS011;63651;55.728;38.022;2022-10-16T22:26:12;4.20;;;2.85;;
75071;SDS011;63651;55.728;38.022;2022-10-16T22:31:13;3.53;;;3.05;;
75071;SDS011;63651;55.728;38.022;2022-10-16T22:36:14;5.03;;;3.08;;
75071;SDS011;63651;55.728;38.022;2022-10-16T22:41:15;3.90;;;3.45;;
75071;SDS011;63651;55.728;38.022;2022-10-16T22:46:17;4.15;;;2.50;;
75071;SDS011;63651;55.728;38.022;2022-10-16T22:51:18;4.55;;;2.63;;
75071;SDS011;63651;55.728;38.022;2022-10-16T22:56:19;3.58;;;2.72;;
75071;SDS011;63651;55.728;38.022;2022-10-16T23:01:24;4.38;;;2.55;;
75071;SDS011;63651;55.728;38.022;2022-10-16T23:06:26;3.83;;;2.65;;
75071;SDS011;63651;55.728;38.022;2022-10-16T23:11:28;4.05;;;2.63;;
75071;SDS011;63651;55.728;38.022;2022-10-16T23:16:29;4.45;;;2.50;;
75071;SDS011;63651;55.728;38.022;2022-10-16T23:21:30;4.35;;;2.63;;
75071;SDS011;63651;55.728;38.022;2022-10-16T23:26:32;6.63;;;2.70;;
75071;SDS011;63651;55.728;38.022;2022-10-16T23:31:33;4.13;;;2.40;;
75071;SDS011;63651;55.728;38.022;2022-10-16T23:36:33;3.67;;;2.53;;
75071;SDS011;63651;55.728;38.022;2022-10-16T23:41:34;4.57;;;2.75;;
75071;SDS011;63651;55.728;38.022;2022-10-16T23:46:35;4.22;;;2.60;;
75071;SDS011;63651;55.728;38.022;2022-10-16T23:51:36;3.70;;;2.97;;
75071;SDS011;63651;55.728;38.022;2022-10-16T23:56:36;5.00;;;2.53;;
